Time;durP1;ratioP1;P1;durP2;ratioP2;P2;SDS_P1;SDS_P2;PMS_P1;PMS_P2;Temp;Humidity;BMP_temperature;BMP_pressure;BME280_temperature;BME280_humidity;BME280_pressure;Samples;Min_cycle;Max_cycle;Signal;HPM_P1;HPM_P2
2020/12/01 00:01:46;;;;;;;;;;;;;;;-3.86;100.00;96657.69;5038028;28;20673;-47
2020/12/01 00:04:12;;;;;;;;;;;;;;;-3.75;100.00;96671.06;5009707;28;19963;-51
2020/12/01 00:06:40;;;;;;;;;;;;;;;-3.84;100.00;96664.47;5041515;28;19965;-47
2020/12/01 00:09:07;;;;;;;;;;;;;;;-3.90;100.00;96663.84;5010260;28;20395;-48
2020/12/01 00:11:34;;;;;;;;;;;;;;;-3.90;100.00;96676.72;5036595;28;19962;-49
2020/12/01 00:14:02;;;;;;;;;;;;;;;-3.75;100.00;96673.63;5005090;28;20019;-52
2020/12/01 00:16:29;;;;;;;;;;;;;;;-3.80;100.00;96675.50;5045687;28;19955;-49
2020/12/01 00:18:56;;;;;;;;;;;;;;;-3.95;100.00;96678.63;4998245;28;19965;-47
2020/12/01 00:21:23;;;;;;;;;;;;;;;-4.17;100.00;96678.47;5043972;28;19953;-47
2020/12/01 00:23:50;;;;;;;;;;;;;;;-4.26;100.00;96674.47;5038486;28;20034;-47
2020/12/01 00:26:18;;;;;;;;;;;;;;;-4.37;100.00;96673.94;5010529;28;19963;-47
2020/12/01 00:28:45;;;;;;;;;;;;;;;-4.18;100.00;96677.63;5041023;28;20065;-49
2020/12/01 00:31:12;;;;;;;;;;;;;;;-4.23;100.00;96668.34;5000652;28;20011;-47
2020/12/01 00:33:39;;;;;;;;;;;;;;;-4.30;100.00;96675.47;5040620;28;20012;-47
2020/12/01 00:36:06;;;;;;;;;;;;;;;-4.32;100.00;96666.94;5005999;28;20058;-47
2020/12/01 00:38:33;;;;;;;;;;;;;;;-4.28;100.00;96671.09;5036082;28;20024;-48
2020/12/01 00:41:00;;;;;;;;;;;;;;;-4.36;100.00;96661.03;5001489;28;20380;-47
2020/12/01 00:43:27;;;;;;;;;;;;;;;-4.34;100.00;96656.66;5043302;28;19968;-51
2020/12/01 00:45:54;;;;;;;;;;;;;;;-4.37;100.00;96645.63;4979005;28;19963;-48
2020/12/01 00:48:21;;;;;;;;;;;;;;;-4.28;100.00;96654.81;5030772;28;20073;-49
2020/12/01 00:50:48;;;;;;;;;;;;;;;-4.27;100.00;96639.28;5002819;28;20036;-46
2020/12/01 00:53:16;;;;;;;;;;;;;;;-4.16;100.00;96637.22;5040403;28;19968;-49
2020/12/01 00:55:44;;;;;;;;;;;;;;;-4.18;100.00;96639.00;4980155;28;19961;-48
2020/12/01 00:58:12;;;;;;;;;;;;;;;-4.18;100.00;96636.44;5035991;28;19966;-50
2020/12/01 01:00:59;;;;;;;;;;;;;;;-4.23;100.00;96632.31;5006008;28;19956;-47
2020/12/01 01:03:27;;;;;;;;;;;;;;;-4.26;100.00;96630.69;5018816;28;19952;-48
2020/12/01 01:05:54;;;;;;;;;;;;;;;-4.28;100.00;96635.03;5002307;28;22339;-49
2020/12/01 01:08:21;;;;;;;;;;;;;;;-4.17;100.00;96626.97;5042917;28;20592;-52
2020/12/01 01:10:48;;;;;;;;;;;;;;;-4.15;100.00;96627.75;5004427;28;20386;-50
2020/12/01 01:13:15;;;;;;;;;;;;;;;-4.14;100.00;96612.25;5037776;28;20020;-47
2020/12/01 01:15:42;;;;;;;;;;;;;;;-4.18;100.00;96608.09;5039332;28;19975;-48
2020/12/01 01:18:09;;;;;;;;;;;;;;;-4.18;100.00;96605.53;5005747;28;19997;-47
2020/12/01 01:20:37;;;;;;;;;;;;;;;-4.17;100.00;96601.22;5034804;28;20043;-48
2020/12/01 01:23:04;;;;;;;;;;;;;;;-4.13;100.00;96593.34;5008415;28;20359;-49
2020/12/01 01:25:31;;;;;;;;;;;;;;;-4.01;100.00;96591.25;5042568;28;20458;-50
2020/12/01 01:27:57;;;;;;;;;;;;;;;-3.95;100.00;96594.44;5000092;28;19963;-50
2020/12/01 01:30:24;;;;;;;;;;;;;;;-3.95;100.00;96589.31;5040863;28;19965;-50
2020/12/01 01:32:51;;;;;;;;;;;;;;;-3.94;100.00;96588.41;4993149;28;19947;-47
2020/12/01 01:35:17;;;;;;;;;;;;;;;-3.92;100.00;96585.78;5038918;28;19965;-50
2020/12/01 01:37:45;;;;;;;;;;;;;;;-3.87;100.00;96578.72;5012841;28;20379;-49
2020/12/01 01:40:16;;;;;;;;;;;;;;;-3.83;100.00;96573.41;5032852;28;20717;-50
2020/12/01 01:42:43;;;;;;;;;;;;;;;-3.77;100.00;96580.06;4994492;28;19965;-50
2020/12/01 01:45:10;;;;;;;;;;;;;;;-3.77;100.00;96582.66;5039983;28;19961;-46
2020/12/01 01:47:36;;;;;;;;;;;;;;;-3.76;100.00;96573.19;5008495;28;19964;-49
2020/12/01 01:50:05;;;;;;;;;;;;;;;-3.77;100.00;96582.66;5033113;28;19963;-46
2020/12/01 01:52:33;;;;;;;;;;;;;;;-3.72;100.00;96578.16;4997543;28;20382;-47
2020/12/01 01:55:01;;;;;;;;;;;;;;;-3.65;100.00;96589.09;5041863;28;20004;-48
2020/12/01 01:57:28;;;;;;;;;;;;;;;-3.51;100.00;96597.19;5031018;28;19946;-49
2020/12/01 01:59:55;;;;;;;;;;;;;;;-3.54;100.00;96591.28;5013960;28;19964;-47
2020/12/01 02:02:22;;;;;;;;;;;;;;;-3.66;100.00;96585.69;5037376;28;19962;-47
2020/12/01 02:04:49;;;;;;;;;;;;;;;-3.69;100.00;96590.94;4999752;28;19960;-49
2020/12/01 02:07:16;;;;;;;;;;;;;;;-3.67;100.00;96588.31;5037193;28;19964;-50
2020/12/01 02:09:43;;;;;;;;;;;;;;;-3.65;100.00;96578.78;4997620;28;19970;-48
2020/12/01 02:12:12;;;;;;;;;;;;;;;-3.73;100.00;96573.06;5047689;28;20422;-52
2020/12/01 02:14:39;;;;;;;;;;;;;;;-3.80;100.00;96571.63;5009524;28;20009;-48
2020/12/01 02:17:15;;;;;;;;;;;;;;;-3.89;100.00;96568.50;5043131;28;20455;-47
2020/12/01 02:19:42;;;;;;;;;;;;;;;-3.91;100.00;96559.97;4996720;28;19982;-51
2020/12/01 02:22:11;;;;;;;;;;;;;;;-3.92;100.00;96560.88;5037546;28;19960;-50
2020/12/01 02:24:38;;;;;;;;;;;;;;;-3.91;100.00;96553.97;5004350;28;19965;-47
2020/12/01 02:27:06;;;;;;;;;;;;;;;-3.85;100.00;96546.88;5044237;28;19971;-50
2020/12/01 02:29:34;;;;;;;;;;;;;;;-3.78;100.00;96541.50;4981427;28;20047;-51
2020/12/01 02:32:02;;;;;;;;;;;;;;;-3.72;100.00;96538.69;5039731;28;20383;-47
2020/12/01 02:34:31;;;;;;;;;;;;;;;-3.65;100.00;96532.41;5006839;28;20056;-47
2020/12/01 02:36:58;;;;;;;;;;;;;;;-3.64;100.00;96521.22;5035348;28;19955;-50
2020/12/01 02:39:27;;;;;;;;;;;;;;;-3.65;100.00;96515.22;5009118;28;22631;-50
2020/12/01 02:41:55;;;;;;;;;;;;;;;-3.55;100.00;96520.84;5037761;28;20045;-47
2020/12/01 02:44:22;;;;;;;;;;;;;;;-3.52;100.00;96519.91;5002314;28;20101;-47
2020/12/01 02:46:49;;;;;;;;;;;;;;;-3.44;100.00;96512.72;5032471;28;19963;-47
2020/12/01 02:49:16;;;;;;;;;;;;;;;-3.45;100.00;96511.03;5044078;28;19970;-46
2020/12/01 02:51:42;;;;;;;;;;;;;;;-3.50;100.00;96503.50;4992440;28;20055;-48
2020/12/01 02:54:09;;;;;;;;;;;;;;;-3.53;100.00;96497.63;5042864;28;19973;-50
2020/12/01 02:56:36;;;;;;;;;;;;;;;-3.55;100.00;96495.09;5002044;28;20063;-52
2020/12/01 02:59:03;;;;;;;;;;;;;;;-3.51;100.00;96488.94;5034299;28;19965;-48
2020/12/01 03:01:30;;;;;;;;;;;;;;;-3.50;100.00;96493.19;5009817;28;19971;-49
2020/12/01 03:03:57;;;;;;;;;;;;;;;-3.51;100.00;96488.06;5039628;28;19968;-47
2020/12/01 03:06:24;;;;;;;;;;;;;;;-3.55;100.00;96486.53;4995999;28;19949;-47
2020/12/01 03:08:50;;;;;;;;;;;;;;;-3.49;100.00;96484.53;5042482;28;19967;-48
2020/12/01 03:11:42;;;;;;;;;;;;;;;-3.49;100.00;96479.41;4995997;28;19961;-49
2020/12/01 03:14:09;;;;;;;;;;;;;;;-3.42;100.00;96480.00;5041048;28;20432;-48
2020/12/01 03:16:36;;;;;;;;;;;;;;;-3.34;100.00;96477.94;5007483;28;20069;-50
2020/12/01 03:19:03;;;;;;;;;;;;;;;-3.28;100.00;96485.44;5045145;28;19963;-47
2020/12/01 03:21:30;;;;;;;;;;;;;;;-3.36;100.00;96480.59;5000370;28;20427;-52
2020/12/01 03:23:57;;;;;;;;;;;;;;;-3.40;100.00;96473.06;5043905;28;20002;-49
2020/12/01 03:26:23;;;;;;;;;;;;;;;-3.29;100.00;96468.31;5010351;28;20914;-47
2020/12/01 03:28:50;;;;;;;;;;;;;;;-3.27;100.00;96465.66;5037170;28;19972;-49
2020/12/01 03:31:18;;;;;;;;;;;;;;;-3.18;100.00;96470.47;5003191;28;19961;-48
2020/12/01 03:33:46;;;;;;;;;;;;;;;-3.13;100.00;96469.41;5044192;28;20016;-48
2020/12/01 03:36:13;;;;;;;;;;;;;;;-3.02;100.00;96468.13;5043076;28;19955;-46
2020/12/01 03:38:39;;;;;;;;;;;;;;;-3.06;100.00;96461.38;5006980;28;20047;-50
2020/12/01 03:41:06;;;;;;;;;;;;;;;-2.92;100.00;96461.69;5040433;28;20027;-49
2020/12/01 03:43:33;;;;;;;;;;;;;;;-2.93;100.00;96453.09;5007471;28;20524;-47
2020/12/01 03:46:00;;;;;;;;;;;;;;;-2.88;100.00;96458.06;5041617;28;20020;-48
2020/12/01 03:48:27;;;;;;;;;;;;;;;-2.77;100.00;96448.16;5007317;28;19981;-47
2020/12/01 03:50:54;;;;;;;;;;;;;;;-2.79;100.00;96449.94;5034347;28;19965;-48
2020/12/01 03:53:21;;;;;;;;;;;;;;;-2.80;100.00;96444.84;5007148;28;20069;-48
2020/12/01 03:55:48;;;;;;;;;;;;;;;-2.75;100.00;96445.50;5042945;28;19957;-47
2020/12/01 03:58:15;;;;;;;;;;;;;;;-2.66;100.00;96437.38;5001060;28;19965;-49
2020/12/01 04:00:41;;;;;;;;;;;;;;;-2.82;100.00;96433.75;5040846;28;19991;-47
2020/12/01 04:03:08;;;;;;;;;;;;;;;-2.73;100.00;96434.19;5006142;28;20010;-47
2020/12/01 04:05:35;;;;;;;;;;;;;;;-2.66;100.00;96425.28;5042357;28;20856;-50
2020/12/01 04:08:02;;;;;;;;;;;;;;;-2.60;100.00;96421.63;5008731;28;19961;-50
2020/12/01 04:10:29;;;;;;;;;;;;;;;-2.61;100.00;96417.38;5043430;28;20086;-47
2020/12/01 04:12:56;;;;;;;;;;;;;;;-2.48;100.00;96412.50;5006555;28;19971;-46
2020/12/01 04:15:24;;;;;;;;;;;;;;;-2.47;100.00;96412.47;5037441;28;21700;-49
2020/12/01 04:17:50;;;;;;;;;;;;;;;-2.44;100.00;96407.16;5044426;28;19949;-47
2020/12/01 04:20:17;;;;;;;;;;;;;;;-2.35;100.00;96399.91;4994390;28;19962;-46
2020/12/01 04:22:44;;;;;;;;;;;;;;;-2.34;100.00;96397.28;5037888;28;20050;-50
2020/12/01 04:25:12;;;;;;;;;;;;;;;-2.25;100.00;96389.09;5008293;28;19966;-49
2020/12/01 04:27:39;;;;;;;;;;;;;;;-2.29;100.00;96390.16;5038269;28;19970;-48
2020/12/01 04:30:07;;;;;;;;;;;;;;;-2.58;100.00;96386.28;5005233;28;19996;-48
2020/12/01 04:32:33;;;;;;;;;;;;;;;-2.42;100.00;96376.94;5039771;28;20411;-48
2020/12/01 04:35:00;;;;;;;;;;;;;;;-2.61;100.00;96378.66;4998981;28;20108;-49
2020/12/01 04:37:27;;;;;;;;;;;;;;;-2.61;100.00;96376.09;5041861;28;19962;-50
2020/12/01 04:39:53;;;;;;;;;;;;;;;-2.57;100.00;96375.03;5008256;28;19971;-49
2020/12/01 04:42:23;;;;;;;;;;;;;;;-2.38;100.00;96372.47;5042559;28;20466;-47
2020/12/01 04:44:53;;;;;;;;;;;;;;;-2.28;100.00;96373.75;5000262;28;19949;-47
2020/12/01 04:47:21;;;;;;;;;;;;;;;-2.20;100.00;96370.84;5036179;28;20393;-51
2020/12/01 04:49:51;;;;;;;;;;;;;;;-2.19;100.00;96372.50;5003897;28;19964;-48
2020/12/01 04:52:23;;;;;;;;;;;;;;;-2.16;100.00;96368.03;5032378;28;20012;-51
2020/12/01 04:55:03;;;;;;;;;;;;;;;-2.12;100.00;96363.56;5003955;28;20020;-47
2020/12/01 04:57:41;;;;;;;;;;;;;;;-2.00;100.00;96362.16;5040262;28;19957;-49
2020/12/01 05:00:21;;;;;;;;;;;;;;;-2.42;100.00;96353.69;5004545;28;20456;-50
2020/12/01 05:03:13;;;;;;;;;;;;;;;-2.38;100.00;96362.13;5034747;28;19964;-45
2020/12/01 05:05:55;;;;;;;;;;;;;;;-2.31;100.00;96354.97;5004009;28;20462;-46
2020/12/01 05:08:29;;;;;;;;;;;;;;;-2.46;100.00;96348.75;5040927;28;19963;-48
2020/12/01 05:10:57;;;;;;;;;;;;;;;-2.22;100.00;96342.47;4990125;28;20383;-47
2020/12/01 05:13:26;;;;;;;;;;;;;;;-2.10;100.00;96343.66;5035347;28;19965;-51
2020/12/01 05:15:54;;;;;;;;;;;;;;;-2.10;100.00;96340.22;5006396;28;19972;-50
2020/12/01 05:18:22;;;;;;;;;;;;;;;-2.06;100.00;96341.78;5040612;28;20031;-47
2020/12/01 05:20:49;;;;;;;;;;;;;;;-2.29;100.00;96335.91;5004081;28;20026;-45
2020/12/01 05:23:17;;;;;;;;;;;;;;;-2.27;100.00;96331.53;5040724;28;19961;-46
2020/12/01 05:25:44;;;;;;;;;;;;;;;-2.07;100.00;96330.59;5009223;28;19966;-46
2020/12/01 05:28:12;;;;;;;;;;;;;;;-2.09;100.00;96324.69;5040406;28;19974;-48
2020/12/01 05:30:41;;;;;;;;;;;;;;;-2.10;100.00;96325.56;5039233;28;19964;-47
2020/12/01 05:33:17;;;;;;;;;;;;;;;-2.07;100.00;96332.34;5002001;28;19954;-52
2020/12/01 05:35:55;;;;;;;;;;;;;;;-2.21;100.00;96313.16;5040202;28;19990;-47
2020/12/01 05:38:22;;;;;;;;;;;;;;;-2.23;100.00;96314.97;5015276;28;19962;-50
2020/12/01 05:40:50;;;;;;;;;;;;;;;-2.19;100.00;96311.34;5039777;28;20456;-48
2020/12/01 05:43:25;;;;;;;;;;;;;;;-2.16;100.00;96318.97;5008618;28;19974;-47
2020/12/01 05:45:52;;;;;;;;;;;;;;;-1.95;100.00;96311.13;5038937;28;19960;-46
2020/12/01 05:48:24;;;;;;;;;;;;;;;-1.89;100.00;96320.31;5008512;28;19946;-49
2020/12/01 05:50:56;;;;;;;;;;;;;;;-1.79;100.00;96318.97;5031985;28;19966;-51
2020/12/01 05:53:22;;;;;;;;;;;;;;;-1.68;100.00;96319.31;5001989;28;19969;-47
2020/12/01 05:56:11;;;;;;;;;;;;;;;-1.58;100.00;96317.09;5046410;28;20061;-46
2020/12/01 05:58:40;;;;;;;;;;;;;;;-1.56;100.00;96310.94;5004854;28;19962;-48
2020/12/01 06:01:09;;;;;;;;;;;;;;;-1.54;100.00;96310.88;5041216;28;20504;-50
2020/12/01 06:03:40;;;;;;;;;;;;;;;-1.46;100.00;96304.41;5005294;28;19963;-49
2020/12/01 06:06:07;;;;;;;;;;;;;;;-1.45;100.00;96302.66;5046132;28;20319;-47
2020/12/01 06:08:37;;;;;;;;;;;;;;;-1.56;100.00;96302.34;5006156;28;21528;-49
2020/12/01 06:11:05;;;;;;;;;;;;;;;-1.91;100.00;96295.38;5042701;28;19969;-54
2020/12/01 06:13:33;;;;;;;;;;;;;;;-1.70;100.00;96301.28;5010162;28;19986;-47
2020/12/01 06:16:09;;;;;;;;;;;;;;;-1.60;100.00;96301.66;5036837;28;19999;-52
2020/12/01 06:18:41;;;;;;;;;;;;;;;-1.58;100.00;96299.00;5003298;28;19967;-47
2020/12/01 06:21:08;;;;;;;;;;;;;;;-1.93;100.00;96288.59;5044081;28;20512;-46
2020/12/01 06:23:50;;;;;;;;;;;;;;;-1.84;100.00;96288.19;4999247;28;20012;-49
2020/12/01 06:26:41;;;;;;;;;;;;;;;-1.65;100.00;96289.88;5022549;28;20004;-50
2020/12/01 06:29:12;;;;;;;;;;;;;;;-1.57;100.00;96285.19;5010694;28;20425;-47
2020/12/01 06:31:45;;;;;;;;;;;;;;;-1.75;100.00;96284.34;5042249;28;20580;-46
2020/12/01 06:34:27;;;;;;;;;;;;;;;-1.97;100.00;96287.91;4999061;28;20327;-47
2020/12/01 06:37:12;;;;;;;;;;;;;;;-1.96;100.00;96284.44;5016451;28;19961;-49
2020/12/01 06:39:45;;;;;;;;;;;;;;;-2.03;100.00;96279.63;5018710;28;20501;-49
2020/12/01 06:42:14;;;;;;;;;;;;;;;-1.98;100.00;96280.25;5044773;28;20493;-48
2020/12/01 06:44:41;;;;;;;;;;;;;;;-1.94;100.00;96274.03;4999627;28;20001;-47
2020/12/01 06:47:08;;;;;;;;;;;;;;;-1.99;100.00;96270.84;5041945;28;20060;-48
2020/12/01 06:49:35;;;;;;;;;;;;;;;-1.93;100.00;96268.81;5004751;28;20044;-50
2020/12/01 06:52:04;;;;;;;;;;;;;;;-1.95;100.00;96273.19;5020392;28;20007;-47
2020/12/01 06:54:30;;;;;;;;;;;;;;;-2.00;100.00;96276.88;5015489;28;20352;-46
2020/12/01 06:56:59;;;;;;;;;;;;;;;-2.01;100.00;96268.31;5044384;28;20019;-47
2020/12/01 06:59:26;;;;;;;;;;;;;;;-2.12;100.00;96269.75;5001192;28;19974;-47
2020/12/01 07:01:53;;;;;;;;;;;;;;;-2.00;100.00;96261.38;5027028;28;19958;-50
2020/12/01 07:04:22;;;;;;;;;;;;;;;-1.96;100.00;96257.78;5044752;28;19962;-48
2020/12/01 07:06:50;;;;;;;;;;;;;;;-1.96;100.00;96260.38;5015056;28;20351;-47
2020/12/01 07:09:18;;;;;;;;;;;;;;;-1.93;100.00;96260.19;5041951;28;20009;-47
2020/12/01 07:11:52;;;;;;;;;;;;;;;-1.87;100.00;96259.91;5026548;23;19970;-55
2020/12/01 07:14:21;;;;;;;;;;;;;;;-1.79;100.00;96257.78;5049021;28;19965;-53
2020/12/01 07:16:48;;;;;;;;;;;;;;;-1.71;100.00;96260.84;5016726;28;20010;-54
2020/12/01 07:19:16;;;;;;;;;;;;;;;-1.82;100.00;96263.13;5039599;28;20029;-56
2020/12/01 07:21:46;;;;;;;;;;;;;;;-1.83;100.00;96263.16;4978372;28;20338;-59
2020/12/01 07:24:16;;;;;;;;;;;;;;;-1.69;100.00;96263.34;5053875;28;19951;-56
2020/12/01 07:26:45;;;;;;;;;;;;;;;-1.78;100.00;96263.81;5015854;28;19961;-59
2020/12/01 07:29:23;;;;;;;;;;;;;;;-1.70;100.00;96264.25;5048144;28;19959;-54
2020/12/01 07:31:50;;;;;;;;;;;;;;;-1.67;100.00;96253.75;5000177;28;19964;-55
2020/12/01 07:34:23;;;;;;;;;;;;;;;-1.71;100.00;96257.41;5047574;28;20343;-53
2020/12/01 07:36:51;;;;;;;;;;;;;;;-1.65;100.00;96253.69;4996232;28;19968;-55
2020/12/01 07:39:19;;;;;;;;;;;;;;;-1.61;100.00;96256.06;5028478;28;19953;-56
2020/12/01 07:41:47;;;;;;;;;;;;;;;-1.41;100.00;96256.78;5023803;28;19966;-58
2020/12/01 07:44:17;;;;;;;;;;;;;;;-1.52;100.00;96252.16;5050992;28;20013;-55
2020/12/01 07:46:53;;;;;;;;;;;;;;;-1.63;100.00;96255.28;5012685;28;19991;-55
2020/12/01 07:49:20;;;;;;;;;;;;;;;-1.60;100.00;96260.31;5054655;28;20083;-58
2020/12/01 07:51:47;;;;;;;;;;;;;;;-1.58;100.00;96253.31;5004195;28;19961;-56
2020/12/01 07:54:17;;;;;;;;;;;;;;;-1.51;100.00;96256.44;5052812;28;19952;-58
2020/12/01 07:56:44;;;;;;;;;;;;;;;-1.38;100.00;96256.66;4993698;28;22590;-56
2020/12/01 07:59:12;;;;;;;;;;;;;;;-1.28;100.00;96257.84;5021558;28;20495;-58
2020/12/01 08:01:39;;;;;;;;;;;;;;;-1.10;100.00;96256.09;5010721;28;20347;-57
2020/12/01 08:04:08;;;;;;;;;;;;;;;-0.91;100.00;96249.06;5048987;28;20044;-58
2020/12/01 08:06:35;;;;;;;;;;;;;;;-1.24;100.00;96249.88;5043156;28;20014;-56
2020/12/01 08:09:09;;;;;;;;;;;;;;;-0.90;100.00;96248.13;4991953;28;20038;-59
2020/12/01 08:11:36;;;;;;;;;;;;;;;-0.88;100.00;96246.31;5020444;28;19967;-58
2020/12/01 08:14:03;;;;;;;;;;;;;;;-1.07;100.00;96255.94;4984156;28;20004;-59
2020/12/01 08:16:31;;;;;;;;;;;;;;;-0.74;100.00;96243.00;5036832;28;19958;-59
2020/12/01 08:18:58;;;;;;;;;;;;;;;-0.72;100.00;96234.25;4989856;28;19961;-59
2020/12/01 08:21:26;;;;;;;;;;;;;;;-0.58;100.00;96243.84;5019625;28;19969;-59
2020/12/01 08:23:53;;;;;;;;;;;;;;;-0.78;100.00;96234.56;4986741;28;20392;-54
2020/12/01 08:26:21;;;;;;;;;;;;;;;-0.47;100.00;96245.03;5053491;28;19966;-58
2020/12/01 08:28:49;;;;;;;;;;;;;;;-0.31;100.00;96241.53;5005048;28;19994;-56
2020/12/01 08:31:19;;;;;;;;;;;;;;;-0.26;100.00;96236.94;5050947;28;20007;-58
2020/12/01 08:33:59;;;;;;;;;;;;;;;-0.29;100.00;96229.31;5025530;28;20009;-57
2020/12/01 08:36:36;;;;;;;;;;;;;;;0.02;100.00;96238.00;5058228;28;19981;-53
2020/12/01 08:39:12;;;;;;;;;;;;;;;0.14;100.00;96236.47;5020973;28;19954;-57
2020/12/01 08:41:42;;;;;;;;;;;;;;;0.21;100.00;96233.44;5047168;28;19961;-58
2020/12/01 08:44:12;;;;;;;;;;;;;;;-0.08;100.00;96231.66;5031698;28;20424;-56
2020/12/01 08:46:40;;;;;;;;;;;;;;;-0.16;100.00;96224.31;5051057;28;19965;-55
2020/12/01 08:49:23;;;;;;;;;;;;;;;-0.05;100.00;96223.69;4994536;28;20090;-59
2020/12/01 08:51:51;;;;;;;;;;;;;;;-0.04;100.00;96225.38;5025236;28;19971;-57
2020/12/01 08:54:19;;;;;;;;;;;;;;;0.10;100.00;96222.00;5018499;28;19950;-58
2020/12/01 08:57:00;;;;;;;;;;;;;;;0.06;100.00;96225.69;5046865;28;19944;-58
2020/12/01 08:59:29;;;;;;;;;;;;;;;0.27;100.00;96224.47;4986032;28;19964;-55
2020/12/01 09:01:59;;;;;;;;;;;;;;;0.10;100.00;96222.81;5025125;28;20452;-55
2020/12/01 09:04:28;;;;;;;;;;;;;;;0.13;100.00;96221.81;4992984;28;20530;-54
2020/12/01 09:07:05;;;;;;;;;;;;;;;0.05;100.00;96214.50;5026992;28;19960;-57
2020/12/01 09:09:33;;;;;;;;;;;;;;;-0.13;100.00;96225.91;4988506;28;22126;-54
2020/12/01 09:12:15;;;;;;;;;;;;;;;-0.01;100.00;96227.78;5018507;28;20364;-54
2020/12/01 09:14:53;;;;;;;;;;;;;;;0.15;100.00;96220.00;4992992;28;19966;-57
2020/12/01 09:17:26;;;;;;;;;;;;;;;0.02;100.00;96221.59;5049947;28;19960;-58
2020/12/01 09:20:15;;;;;;;;;;;;;;;-0.01;100.00;96212.25;5005925;28;19966;-56
2020/12/01 09:22:42;;;;;;;;;;;;;;;0.43;100.00;96214.06;5041364;28;19972;-56
2020/12/01 09:25:12;;;;;;;;;;;;;;;0.33;100.00;96215.50;4989191;28;23651;-55
2020/12/01 09:27:41;;;;;;;;;;;;;;;0.96;100.00;96212.66;5046406;28;20781;-54
2020/12/01 09:30:14;;;;;;;;;;;;;;;0.83;100.00;96209.97;5013775;28;19967;-53
2020/12/01 09:32:41;;;;;;;;;;;;;;;1.13;100.00;96219.44;5055331;28;19978;-56
2020/12/01 09:35:10;;;;;;;;;;;;;;;1.07;99.77;96215.44;5056963;28;19969;-56
2020/12/01 09:37:37;;;;;;;;;;;;;;;0.99;100.00;96214.22;5020950;28;20063;-55
2020/12/01 09:40:04;;;;;;;;;;;;;;;1.51;100.00;96222.25;5044027;28;20556;-56
2020/12/01 09:42:35;;;;;;;;;;;;;;;1.70;96.71;96213.34;4993369;28;19968;-57
2020/12/01 09:45:09;;;;;;;;;;;;;;;1.85;96.56;96209.75;5048084;28;20015;-59
2020/12/01 09:47:40;;;;;;;;;;;;;;;1.57;94.89;96214.09;5000048;28;19956;-53
2020/12/01 09:50:10;;;;;;;;;;;;;;;1.30;97.14;96210.59;5055433;28;19971;-56
2020/12/01 09:52:52;;;;;;;;;;;;;;;1.40;97.76;96203.91;5008491;28;20005;-58
2020/12/01 09:55:35;;;;;;;;;;;;;;;1.44;97.55;96205.38;5051932;28;20445;-59
2020/12/01 09:58:10;;;;;;;;;;;;;;;1.72;97.31;96201.06;4998716;28;19959;-56
2020/12/01 10:08:48;;;;;;;;;;;;;;;2.99;89.45;96198.75;5008144;28;19960;-54
2020/12/01 10:11:47;;;;;;;;;;;;;;;3.01;88.10;96190.84;5043587;28;19971;-56
2020/12/01 10:15:20;;;;;;;;;;;;;;;3.00;86.67;96200.44;5060990;28;20367;-56
2020/12/01 10:26:00;;;;;;;;;;;;;;;2.72;89.33;96203.22;4998147;28;20021;-58
2020/12/01 10:36:53;;;;;;;;;;;;;;;2.41;88.77;96192.28;5067314;28;20015;-53
2020/12/01 10:39:20;;;;;;;;;;;;;;;2.62;88.32;96187.41;5027905;28;20018;-56
2020/12/01 10:41:48;;;;;;;;;;;;;;;2.53;87.78;96196.66;5063381;28;19970;-55
2020/12/01 10:44:15;;;;;;;;;;;;;;;2.24;89.64;96200.34;5020439;28;19961;-56
2020/12/01 10:46:45;;;;;;;;;;;;;;;2.11;91.50;96208.94;5068362;28;19968;-54
2020/12/01 10:49:12;;;;;;;;;;;;;;;1.89;94.44;96200.84;5026721;28;19966;-52
2020/12/01 10:51:39;;;;;;;;;;;;;;;1.77;94.30;96197.25;5062435;28;20449;-56
2020/12/01 10:54:05;;;;;;;;;;;;;;;2.04;94.46;96197.25;5018774;28;19951;-58
2020/12/01 10:56:32;;;;;;;;;;;;;;;2.13;94.80;96201.88;5069014;28;20065;-56
2020/12/01 10:59:00;;;;;;;;;;;;;;;2.05;93.78;96201.53;5029500;28;19963;-56
2020/12/01 11:01:27;;;;;;;;;;;;;;;2.23;94.62;96201.25;5069037;28;19971;-57
2020/12/01 11:03:54;;;;;;;;;;;;;;;2.30;93.37;96200.75;5035496;28;19963;-59
2020/12/01 11:06:21;;;;;;;;;;;;;;;2.42;92.44;96193.94;5071039;28;20419;-53
2020/12/01 11:08:47;;;;;;;;;;;;;;;2.95;90.60;96186.06;5073453;28;19948;-58
2020/12/01 11:11:17;;;;;;;;;;;;;;;2.72;89.40;96190.19;5032442;28;19969;-56
2020/12/01 11:13:44;;;;;;;;;;;;;;;2.82;87.67;96181.69;5066029;28;20027;-59
2020/12/01 11:16:12;;;;;;;;;;;;;;;3.06;88.28;96180.94;5032380;28;20383;-59
2020/12/01 11:18:39;;;;;;;;;;;;;;;2.98;88.38;96189.28;5063477;28;19970;-57
2020/12/01 11:21:06;;;;;;;;;;;;;;;3.41;87.82;96191.53;5034946;28;20021;-57
2020/12/01 11:23:33;;;;;;;;;;;;;;;2.97;86.32;96194.59;5065680;28;19967;-54
2020/12/01 11:26:00;;;;;;;;;;;;;;;2.56;89.06;96200.81;5028688;28;20439;-59
2020/12/01 11:28:27;;;;;;;;;;;;;;;2.96;90.41;96185.97;5066795;28;19957;-57
2020/12/01 11:30:54;;;;;;;;;;;;;;;3.13;88.76;96199.59;5033769;28;20003;-57
2020/12/01 11:33:26;;;;;;;;;;;;;;;3.53;87.31;96193.28;5066301;28;19995;-52
2020/12/01 11:35:53;;;;;;;;;;;;;;;3.11;88.33;96186.69;5026611;28;19988;-58
2020/12/01 11:38:19;;;;;;;;;;;;;;;2.91;89.64;96188.03;5068234;28;19995;-55
2020/12/01 11:40:47;;;;;;;;;;;;;;;2.54;91.13;96190.50;5030895;28;19957;-56
2020/12/01 11:43:14;;;;;;;;;;;;;;;3.22;89.29;96181.53;5065007;28;20411;-57
2020/12/01 11:45:41;;;;;;;;;;;;;;;2.87;90.32;96186.56;5028525;28;20019;-54
2020/12/01 11:48:08;;;;;;;;;;;;;;;2.83;92.12;96187.72;5068833;28;19990;-53
2020/12/01 11:50:36;;;;;;;;;;;;;;;2.68;91.34;96193.94;5022899;28;19962;-56
2020/12/01 11:53:03;;;;;;;;;;;;;;;2.33;93.10;96184.13;5066503;28;19969;-56
2020/12/01 11:55:30;;;;;;;;;;;;;;;2.21;94.97;96187.53;5050257;28;20058;-56
2020/12/01 11:57:57;;;;;;;;;;;;;;;1.94;97.51;96185.78;5024727;28;20072;-55
2020/12/01 12:00:25;;;;;;;;;;;;;;;1.99;98.99;96186.31;5065415;28;19944;-55
2020/12/01 12:02:55;;;;;;;;;;;;;;;2.18;98.45;96185.13;5031973;28;19964;-58
2020/12/01 12:05:22;;;;;;;;;;;;;;;2.17;98.56;96186.03;5068164;28;19971;-59
2020/12/01 12:07:50;;;;;;;;;;;;;;;2.80;96.19;96180.94;5027991;28;20055;-52
2020/12/01 12:10:17;;;;;;;;;;;;;;;3.00;92.65;96179.59;5065387;28;20079;-56
2020/12/01 12:12:44;;;;;;;;;;;;;;;2.76;93.65;96181.28;5021734;28;19971;-57
2020/12/01 12:15:11;;;;;;;;;;;;;;;3.82;90.11;96177.34;5071694;28;19991;-56
2020/12/01 12:17:38;;;;;;;;;;;;;;;3.69;86.78;96168.72;5031974;28;19960;-55
2020/12/01 12:20:05;;;;;;;;;;;;;;;3.36;89.34;96164.94;5056780;28;19963;-54
2020/12/01 12:22:32;;;;;;;;;;;;;;;2.93;92.00;96160.13;5013279;28;20459;-58
2020/12/01 12:25:00;;;;;;;;;;;;;;;2.66;94.40;96162.00;5068521;28;19964;-57
2020/12/01 12:27:28;;;;;;;;;;;;;;;2.68;93.19;96162.72;5032258;28;20554;-57
2020/12/01 12:29:55;;;;;;;;;;;;;;;2.65;95.12;96165.53;5066828;28;20415;-53
2020/12/01 12:32:22;;;;;;;;;;;;;;;2.56;95.49;96156.56;5025927;28;23430;-56
2020/12/01 12:34:49;;;;;;;;;;;;;;;2.48;96.65;96164.03;5065670;28;19959;-57
2020/12/01 12:37:16;;;;;;;;;;;;;;;2.51;96.40;96169.06;5041109;28;20053;-53
2020/12/01 12:39:43;;;;;;;;;;;;;;;2.91;94.74;96161.16;5055842;28;20540;-54
2020/12/01 12:42:11;;;;;;;;;;;;;;;2.53;94.95;96169.78;5061808;28;20049;-58
2020/12/01 12:44:37;;;;;;;;;;;;;;;2.45;97.02;96169.47;5029410;28;19994;-59
2020/12/01 12:47:04;;;;;;;;;;;;;;;2.10;98.58;96167.44;5066683;28;20023;-56
2020/12/01 12:49:31;;;;;;;;;;;;;;;1.79;100.00;96168.56;5025634;28;20047;-54
2020/12/01 12:51:58;;;;;;;;;;;;;;;1.52;100.00;96168.56;5054676;28;20001;-57
2020/12/01 12:54:24;;;;;;;;;;;;;;;1.37;100.00;96167.72;5027547;28;19994;-56
2020/12/01 12:56:51;;;;;;;;;;;;;;;1.23;100.00;96171.19;5062078;28;19949;-55
2020/12/01 12:59:19;;;;;;;;;;;;;;;1.28;100.00;96174.34;5021916;28;19968;-58
2020/12/01 13:01:46;;;;;;;;;;;;;;;1.47;100.00;96171.44;5058920;28;19971;-59
2020/12/01 13:04:13;;;;;;;;;;;;;;;1.39;100.00;96166.72;5032581;28;19962;-56
2020/12/01 13:06:40;;;;;;;;;;;;;;;1.51;100.00;96175.50;5066194;28;19968;-58
2020/12/01 13:09:07;;;;;;;;;;;;;;;1.50;100.00;96180.81;5028113;28;19952;-57
2020/12/01 13:11:33;;;;;;;;;;;;;;;1.51;100.00;96172.91;5058945;28;20046;-57
2020/12/01 13:14:01;;;;;;;;;;;;;;;1.17;100.00;96172.41;5028879;28;19969;-57
2020/12/01 13:16:28;;;;;;;;;;;;;;;1.28;100.00;96174.34;5051451;22;19972;-48
2020/12/01 13:18:55;;;;;;;;;;;;;;;1.34;100.00;96178.31;5036414;28;20328;-49